Time;durP1;ratioP1;P1;durP2;ratioP2;P2;SDS_P1;SDS_P2;PMS_P1;PMS_P2;Temp;Humidity;BMP_temperature;BMP_pressure;BME280_temperature;BME280_humidity;BME280_pressure;Samples;Min_cycle;Max_cycle;Signal;HPM_P1;HPM_P2
2024/04/19 00:01:59;;;;;;;8.85;2.20;;;;;;;4.90;100.00;100505.69;5479881;25;20342;-75
2024/04/19 00:04:32;;;;;;;10.93;2.25;;;;;;;4.92;100.00;100503.56;5488520;26;20338;-76
2024/04/19 00:06:59;;;;;;;10.90;2.37;;;;;;;4.99;100.00;100499.88;5509312;26;20357;-76
2024/04/19 00:09:55;;;;;;;10.93;2.30;;;;;;;4.94;100.00;100487.97;5508823;26;20303;-75
2024/04/19 00:12:22;;;;;;;7.68;2.20;;;;;;;4.79;100.00;100485.00;5512188;26;20350;-76
2024/04/19 00:14:52;;;;;;;9.40;2.38;;;;;;;4.75;100.00;100489.25;5451578;26;20348;-76
2024/04/19 00:17:20;;;;;;;10.13;2.30;;;;;;;4.77;100.00;100481.75;5467855;26;20322;-75
2024/04/19 00:19:52;;;;;;;11.98;2.42;;;;;;;4.71;100.00;100480.03;5508549;26;20319;-76
2024/04/19 00:22:20;;;;;;;9.75;2.17;;;;;;;4.93;100.00;100472.84;5515861;26;20354;-75
2024/04/19 00:24:50;;;;;;;6.82;2.00;;;;;;;4.77;100.00;100468.28;5499350;26;20375;-76
2024/04/19 00:27:17;;;;;;;10.52;2.15;;;;;;;4.78;100.00;100459.13;5476605;26;20310;-76
2024/04/19 00:29:47;;;;;;;10.82;2.20;;;;;;;4.81;100.00;100458.63;5504837;25;20365;-75
2024/04/19 00:32:15;;;;;;;9.00;2.08;;;;;;;4.81;100.00;100449.75;5508165;26;20346;-76
2024/04/19 00:34:45;;;;;;;7.60;2.43;;;;;;;4.85;100.00;100451.69;5507826;26;20434;-76
2024/04/19 00:37:15;;;;;;;9.52;2.00;;;;;;;4.82;100.00;100441.41;5482751;26;20867;-76
2024/04/19 00:39:45;;;;;;;7.55;2.03;;;;;;;4.81;100.00;100442.44;5480460;26;20327;-76
2024/04/19 00:42:12;;;;;;;10.00;2.20;;;;;;;4.71;100.00;100432.34;5512385;25;20466;-76
2024/04/19 00:44:42;;;;;;;8.50;2.22;;;;;;;4.72;100.00;100427.75;5515214;26;20420;-76
2024/04/19 00:47:12;;;;;;;10.65;2.33;;;;;;;4.74;100.00;100429.13;5508195;26;20352;-76
2024/04/19 00:49:43;;;;;;;7.40;1.90;;;;;;;4.74;100.00;100418.34;5511485;25;20342;-76
2024/04/19 00:52:12;;;;;;;8.73;2.30;;;;;;;4.96;100.00;100414.91;5515400;25;20547;-76
2024/04/19 00:54:47;;;;;;;6.80;1.90;;;;;;;4.81;100.00;100406.59;5475989;26;20318;-76
2024/04/19 00:57:14;;;;;;;7.60;2.15;;;;;;;4.76;100.00;100407.31;5514867;26;20330;-76
2024/04/19 00:59:46;;;;;;;10.10;2.00;;;;;;;4.77;100.00;100407.06;5506799;26;21406;-76
2024/04/19 01:02:14;;;;;;;9.43;2.10;;;;;;;4.77;100.00;100407.06;5481060;25;20323;-76
2024/04/19 01:04:44;;;;;;;7.13;1.90;;;;;;;4.85;100.00;100388.88;5508869;25;20327;-76
2024/04/19 01:07:11;;;;;;;9.18;2.20;;;;;;;4.83;100.00;100394.47;5508009;26;20312;-76
2024/04/19 01:09:41;;;;;;;8.35;2.58;;;;;;;4.80;100.00;100378.81;5486383;26;20354;-76
2024/04/19 01:12:11;;;;;;;7.40;2.10;;;;;;;4.90;100.00;100378.97;5513068;26;20312;-76
2024/04/19 01:14:41;;;;;;;7.75;2.20;;;;;;;5.00;100.00;100366.66;5466159;26;20758;-76
2024/04/19 01:17:09;;;;;;;7.33;1.90;;;;;;;4.92;100.00;100365.22;5497478;26;20337;-75
2024/04/19 01:19:39;;;;;;;7.47;2.10;;;;;;;4.87;100.00;100354.34;5481343;26;20363;-76
2024/04/19 01:22:06;;;;;;;8.00;2.20;;;;;;;4.92;100.00;100354.44;5515691;26;20311;-76
2024/04/19 01:24:41;;;;;;;9.98;2.35;;;;;;;4.86;100.00;100352.72;5494690;26;20427;-76
2024/04/19 01:27:11;;;;;;;5.05;1.90;;;;;;;5.01;100.00;100344.81;5497612;26;20390;-76
2024/04/19 01:29:42;;;;;;;7.65;2.20;;;;;;;4.95;100.00;100340.44;5468181;26;20353;-75
2024/04/19 01:32:09;;;;;;;8.25;2.38;;;;;;;5.01;100.00;100339.44;5446350;26;20348;-76
2024/04/19 01:34:39;;;;;;;6.85;1.95;;;;;;;4.94;100.00;100330.72;5491945;26;20322;-75
2024/04/19 01:37:07;;;;;;;6.93;2.20;;;;;;;4.83;100.00;100331.66;5485407;26;20318;-75
2024/04/19 01:39:37;;;;;;;9.67;2.40;;;;;;;4.80;100.00;100324.88;5512825;26;20323;-76
2024/04/19 01:42:05;;;;;;;10.25;2.40;;;;;;;4.77;100.00;100323.50;5510080;25;20346;-75
2024/04/19 01:44:37;;;;;;;6.40;2.10;;;;;;;4.68;100.00;100308.84;5513935;26;20367;-76
2024/04/19 01:47:05;;;;;;;9.25;2.22;;;;;;;4.73;100.00;100303.50;5514850;26;20384;-75
2024/04/19 01:49:35;;;;;;;6.57;1.98;;;;;;;4.61;100.00;100294.72;5510545;26;20367;-75
2024/04/19 01:52:03;;;;;;;8.68;2.35;;;;;;;4.51;100.00;100286.50;5511414;26;20666;-76
2024/04/19 01:54:33;;;;;;;6.88;2.15;;;;;;;4.58;100.00;100277.19;5476733;26;20374;-75
2024/04/19 01:57:01;;;;;;;7.63;2.20;;;;;;;4.50;100.00;100280.31;5508626;26;20315;-75
2024/04/19 01:59:31;;;;;;;8.90;2.22;;;;;;;4.55;100.00;100274.97;5463437;26;20347;-76
2024/04/19 02:02:02;;;;;;;8.25;2.20;;;;;;;4.47;100.00;100267.31;5470789;25;20323;-76
2024/04/19 02:04:32;;;;;;;7.47;2.10;;;;;;;4.53;100.00;100260.94;5495911;26;20315;-75
2024/04/19 02:07:00;;;;;;;8.85;2.00;;;;;;;4.72;100.00;100252.53;5512210;26;20345;-75
2024/04/19 02:09:36;;;;;;;8.52;2.50;;;;;;;4.57;100.00;100245.91;5490169;26;20352;-75
2024/04/19 02:12:04;;;;;;;8.15;2.10;;;;;;;4.63;100.00;100233.31;5487860;26;20318;-76
2024/04/19 02:14:35;;;;;;;6.77;1.87;;;;;;;4.41;100.00;100231.41;5504087;26;20421;-75
2024/04/19 02:17:05;;;;;;;5.10;1.95;;;;;;;4.42;100.00;100230.34;5512496;25;20353;-75
2024/04/19 02:19:39;;;;;;;10.23;2.22;;;;;;;4.46;100.00;100219.06;5467932;26;20378;-76
2024/04/19 02:22:06;;;;;;;8.13;2.30;;;;;;;4.33;100.00;100217.56;5500709;25;20375;-75
2024/04/19 02:24:37;;;;;;;7.35;2.10;;;;;;;4.52;100.00;100199.22;5518795;26;20367;-75
2024/04/19 02:27:17;;;;;;;4.55;2.00;;;;;;;4.34;100.00;100200.34;5486387;26;20358;-75
2024/04/19 02:32:35;;;;;;;9.00;2.00;;;;;;;4.39;100.00;100184.22;5518369;26;20374;-75
2024/04/19 02:35:06;;;;;;;8.25;2.10;;;;;;;4.27;100.00;100173.59;5476638;26;20333;-75
2024/04/19 02:37:41;;;;;;;5.32;1.80;;;;;;;4.29;100.00;100171.44;5482003;26;20385;-75
2024/04/19 02:40:11;;;;;;;5.40;1.90;;;;;;;4.22;100.00;100166.25;5485004;26;20366;-75
2024/04/19 02:42:41;;;;;;;8.73;2.60;;;;;;;4.18;100.00;100165.09;5481737;26;20356;-75
2024/04/19 02:45:11;;;;;;;7.07;2.25;;;;;;;4.26;100.00;100155.78;5515454;26;20376;-76
2024/04/19 02:47:44;;;;;;;5.95;2.22;;;;;;;4.32;100.00;100148.56;5517746;25;20379;-75
2024/04/19 02:50:14;;;;;;;6.17;2.30;;;;;;;4.25;100.00;100138.81;5518069;26;20345;-76
2024/04/19 02:52:44;;;;;;;6.78;2.47;;;;;;;4.23;100.00;100134.75;5515669;26;20320;-75
2024/04/19 02:55:14;;;;;;;7.10;2.35;;;;;;;4.24;100.00;100131.00;5502874;26;20402;-75
2024/04/19 02:57:44;;;;;;;7.75;2.50;;;;;;;4.17;100.00;100122.28;5517102;26;20406;-75
2024/04/19 03:00:34;;;;;;;7.03;2.70;;;;;;;4.00;100.00;100115.06;5517235;26;20356;-75
2024/04/19 03:03:07;;;;;;;10.52;2.92;;;;;;;4.14;100.00;100118.19;5514892;25;20315;-75
2024/04/19 03:05:40;;;;;;;8.80;2.72;;;;;;;4.23;100.00;100099.72;5513795;26;20332;-75
2024/04/19 03:08:10;;;;;;;7.00;2.55;;;;;;;4.17;100.00;100101.56;5513630;26;21154;-75
2024/04/19 03:10:41;;;;;;;5.78;2.47;;;;;;;4.09;100.00;100091.22;5514064;26;20307;-75
2024/04/19 03:13:13;;;;;;;7.22;2.30;;;;;;;4.06;100.00;100086.31;5507660;26;20386;-75
2024/04/19 03:15:43;;;;;;;7.40;2.25;;;;;;;4.03;100.00;100079.59;5505749;26;20357;-75
2024/04/19 03:18:36;;;;;;;8.10;2.40;;;;;;;4.06;100.00;100072.84;5516397;26;20331;-76
2024/04/19 03:21:06;;;;;;;11.20;2.65;;;;;;;4.04;100.00;100067.72;5482319;26;20408;-75
2024/04/19 03:23:36;;;;;;;6.97;2.42;;;;;;;3.94;100.00;100059.53;5518067;26;20367;-75
2024/04/19 03:26:07;;;;;;;8.98;2.55;;;;;;;3.99;100.00;100048.00;5513788;26;20319;-75
2024/04/19 03:28:37;;;;;;;10.15;2.95;;;;;;;4.00;100.00;100031.59;5514423;25;20357;-75
2024/04/19 03:31:08;;;;;;;6.18;2.53;;;;;;;3.90;100.00;100029.59;5483299;26;20967;-75
2024/04/19 03:33:41;;;;;;;6.80;2.58;;;;;;;4.00;100.00;100038.88;5516060;26;20830;-75
2024/04/19 03:36:11;;;;;;;6.70;2.50;;;;;;;4.04;100.00;100031.91;5508447;26;20350;-75
2024/04/19 03:38:41;;;;;;;6.68;2.38;;;;;;;3.80;100.00;100017.91;5515559;26;21018;-75
2024/04/19 03:41:11;;;;;;;4.87;2.50;;;;;;;3.80;100.00;100010.66;5499705;26;21011;-75
2024/04/19 03:45:40;;;;;;;9.02;2.80;;;;;;;3.89;100.00;100011.00;5516446;26;20308;-75
2024/04/19 03:46:33;;;;;;;6.75;2.60;;;;;;;3.89;100.00;100008.31;5496217;26;20308;-75
2024/04/19 03:49:06;;;;;;;5.83;2.90;;;;;;;3.91;100.00;99996.25;5516323;26;20316;-74
2024/04/19 03:51:36;;;;;;;7.15;2.65;;;;;;;3.99;100.00;99992.31;5514552;26;21296;-75
2024/04/19 03:54:06;;;;;;;6.10;2.77;;;;;;;3.92;100.00;99986.28;5516624;26;20315;-75
2024/04/19 03:56:41;;;;;;;8.40;3.00;;;;;;;4.03;100.00;99977.25;5477839;26;20322;-75
2024/04/19 03:59:11;;;;;;;7.63;3.15;;;;;;;3.97;100.00;99974.78;5513296;26;20315;-75
2024/04/19 04:01:42;;;;;;;7.55;3.20;;;;;;;3.87;100.00;99960.13;5517654;26;20712;-75
2024/04/19 04:04:14;;;;;;;7.70;3.22;;;;;;;3.82;100.00;99961.94;5513642;25;20383;-75
2024/04/19 04:06:44;;;;;;;8.65;3.42;;;;;;;3.83;100.00;99959.00;5511150;26;20369;-75
2024/04/19 04:09:14;;;;;;;5.97;2.90;;;;;;;3.79;100.00;99957.09;5497433;26;20315;-75
2024/04/19 04:11:44;;;;;;;9.90;2.90;;;;;;;3.71;100.00;99944.88;5474301;26;20318;-75
2024/04/19 04:14:14;;;;;;;8.35;3.38;;;;;;;3.71;100.00;99939.50;5512020;26;20677;-75
2024/04/19 04:16:46;;;;;;;8.40;3.40;;;;;;;3.77;100.00;99940.34;5513411;26;20319;-75
2024/04/19 04:19:19;;;;;;;8.52;3.65;;;;;;;3.84;100.00;99932.88;5516015;26;20379;-75
2024/04/19 04:21:49;;;;;;;9.30;3.25;;;;;;;3.80;100.00;99923.69;5458548;26;20382;-76
2024/04/19 04:24:19;;;;;;;8.40;3.47;;;;;;;3.94;100.00;99911.47;5492332;26;20801;-75
2024/04/19 04:26:54;;;;;;;6.35;2.80;;;;;;;3.82;100.00;99911.63;5513236;26;20386;-75
2024/04/19 04:29:24;;;;;;;8.20;3.60;;;;;;;3.72;100.00;99903.44;5515581;26;20868;-75
2024/04/19 04:31:56;;;;;;;6.65;3.10;;;;;;;3.74;100.00;99898.63;5515565;26;20374;-75
2024/04/19 04:34:28;;;;;;;7.43;2.80;;;;;;;3.80;100.00;99876.09;5514677;26;20315;-75
2024/04/19 04:36:58;;;;;;;6.85;3.03;;;;;;;3.64;100.00;99875.09;5513449;26;20381;-76
2024/04/19 04:39:28;;;;;;;10.13;3.13;;;;;;;3.64;100.00;99877.78;5475361;26;20387;-75
2024/04/19 04:41:59;;;;;;;6.78;3.03;;;;;;;3.80;100.00;99865.31;5509913;26;20375;-75
2024/04/19 04:44:32;;;;;;;9.70;3.28;;;;;;;3.69;100.00;99859.03;5514695;26;20319;-75
2024/04/19 04:47:02;;;;;;;8.82;4.20;;;;;;;3.67;100.00;99853.06;5513552;26;20367;-75
2024/04/19 04:49:35;;;;;;;9.77;4.60;;;;;;;3.60;100.00;99848.97;5515237;26;20375;-75
2024/04/19 04:52:05;;;;;;;8.20;3.90;;;;;;;3.67;100.00;99844.19;5517075;26;20807;-75
2024/04/19 04:54:35;;;;;;;6.95;3.05;;;;;;;3.60;100.00;99841.69;5513313;26;20319;-75
2024/04/19 04:57:07;;;;;;;7.55;3.38;;;;;;;3.62;100.00;99842.28;5514652;26;20359;-75
2024/04/19 04:59:37;;;;;;;8.10;3.45;;;;;;;3.65;100.00;99827.50;5515401;26;20967;-75
2024/04/19 05:02:07;;;;;;;9.02;3.53;;;;;;;3.58;100.00;99820.44;5508398;25;20353;-75
2024/04/19 05:04:40;;;;;;;7.30;3.20;;;;;;;3.66;100.00;99823.72;5507459;26;20334;-75
2024/04/19 05:07:10;;;;;;;9.13;3.78;;;;;;;3.68;100.00;99806.25;5512011;26;20353;-75
2024/04/19 05:09:40;;;;;;;7.22;3.10;;;;;;;3.64;100.00;99804.34;5474178;26;20322;-75
2024/04/19 05:12:11;;;;;;;6.00;3.40;;;;;;;3.69;100.00;99793.63;5509781;26;20358;-75
2024/04/19 05:14:41;;;;;;;6.93;2.90;;;;;;;3.70;100.00;99793.38;5511713;26;20366;-75
2024/04/19 05:17:11;;;;;;;5.28;3.00;;;;;;;3.67;100.00;99793.88;5496003;26;20331;-75
2024/04/19 05:19:49;;;;;;;7.65;2.90;;;;;;;3.62;100.00;99783.06;5514856;26;20708;-75
2024/04/19 05:22:19;;;;;;;4.43;2.70;;;;;;;3.55;100.00;99775.22;5498506;26;20350;-75
2024/04/19 05:24:49;;;;;;;4.88;2.38;;;;;;;3.52;100.00;99770.34;5514761;26;21155;-75
2024/04/19 05:27:19;;;;;;;4.67;2.57;;;;;;;3.54;100.00;99756.63;5501118;26;20330;-75
2024/04/19 05:29:49;;;;;;;6.28;2.75;;;;;;;3.43;100.00;99757.63;5511201;25;20312;-75
2024/04/19 05:32:19;;;;;;;4.72;2.42;;;;;;;3.50;100.00;99761.72;5495958;25;20327;-75
2024/04/19 05:34:52;;;;;;;5.20;2.60;;;;;;;3.47;100.00;99761.44;5471941;26;20330;-75
2024/04/19 05:37:22;;;;;;;5.25;2.67;;;;;;;3.42;100.00;99750.63;5499639;26;20316;-75
2024/04/19 05:39:52;;;;;;;5.03;2.40;;;;;;;3.45;100.00;99760.84;5475515;26;21149;-75
2024/04/19 05:42:22;;;;;;;5.53;2.30;;;;;;;3.38;100.00;99748.44;5497217;26;20330;-75
2024/04/19 05:44:52;;;;;;;3.70;1.97;;;;;;;3.46;100.00;99754.41;5512450;26;20913;-75
2024/04/19 05:47:22;;;;;;;3.90;2.00;;;;;;;3.30;100.00;99748.06;5513457;26;20376;-75
2024/04/19 05:49:55;;;;;;;3.83;2.00;;;;;;;3.13;100.00;99740.13;5474819;25;20359;-75
2024/04/19 05:52:25;;;;;;;4.30;1.92;;;;;;;3.39;100.00;99741.16;5472899;26;20326;-76
2024/04/19 05:54:55;;;;;;;3.58;1.83;;;;;;;3.18;100.00;99727.53;5509458;26;20870;-76
2024/04/19 05:57:25;;;;;;;3.00;1.90;;;;;;;3.16;100.00;99718.09;5510149;25;20323;-76
2024/04/19 05:59:56;;;;;;;3.60;1.90;;;;;;;3.17;100.00;99722.41;5515520;25;21238;-76
2024/04/19 06:02:26;;;;;;;2.97;1.70;;;;;;;3.25;100.00;99718.47;5514076;25;20316;-76
2024/04/19 06:04:59;;;;;;;2.80;1.55;;;;;;;3.40;100.00;99711.31;5514017;26;20989;-76
2024/04/19 06:07:29;;;;;;;3.30;1.77;;;;;;;3.37;100.00;99705.63;5512165;25;20341;-75
2024/04/19 06:10:05;;;;;;;3.60;1.80;;;;;;;3.40;100.00;99697.09;5511712;25;20362;-76
2024/04/19 06:12:35;;;;;;;3.63;2.10;;;;;;;3.34;100.00;99701.59;5501001;25;20330;-76
2024/04/19 06:15:06;;;;;;;4.10;2.00;;;;;;;3.33;100.00;99694.59;5507083;25;20382;-76
2024/04/19 06:17:36;;;;;;;3.83;2.00;;;;;;;3.32;100.00;99684.09;5507767;25;20365;-76
2024/04/19 06:20:09;;;;;;;4.65;2.28;;;;;;;3.23;100.00;99681.88;5510741;25;20363;-75
2024/04/19 06:22:39;;;;;;;3.97;1.92;;;;;;;3.37;100.00;99681.44;5504257;25;20326;-76
2024/04/19 06:25:10;;;;;;;3.25;1.83;;;;;;;3.37;100.00;99676.88;5513300;26;20327;-76
2024/04/19 06:27:40;;;;;;;4.50;1.70;;;;;;;3.43;100.00;99664.28;5516544;26;20352;-75
2024/04/19 06:30:11;;;;;;;3.72;1.80;;;;;;;3.38;100.00;99678.50;5517676;26;20375;-76
2024/04/19 06:32:41;;;;;;;3.22;1.95;;;;;;;3.40;100.00;99665.59;5506185;25;20336;-76
2024/04/19 06:35:16;;;;;;;5.07;2.20;;;;;;;3.42;100.00;99656.47;5511248;25;20701;-76
2024/04/19 06:37:46;;;;;;;4.30;2.10;;;;;;;3.58;100.00;99647.44;5514497;25;20319;-76
2024/04/19 06:40:16;;;;;;;5.25;2.60;;;;;;;3.65;100.00;99628.41;5478922;26;20384;-76
2024/04/19 06:42:46;;;;;;;3.97;1.98;;;;;;;3.78;100.00;99637.88;5473046;26;20318;-75
2024/04/19 06:45:16;;;;;;;4.28;2.45;;;;;;;3.70;100.00;99618.47;5511157;25;20324;-76
2024/04/19 06:47:46;;;;;;;3.65;1.90;;;;;;;3.77;100.00;99617.41;5509996;26;20311;-75
2024/04/19 06:50:19;;;;;;;4.40;2.10;;;;;;;3.82;100.00;99606.69;5509249;25;20514;-75
2024/04/19 06:52:49;;;;;;;4.60;2.50;;;;;;;3.77;100.00;99615.56;5460256;26;20554;-76
2024/04/19 06:55:19;;;;;;;5.07;2.53;;;;;;;3.86;100.00;99610.47;5480595;25;20338;-75
2024/04/19 06:57:49;;;;;;;4.95;2.35;;;;;;;3.75;100.00;99605.03;5493912;25;20344;-76
2024/04/19 07:00:19;;;;;;;4.53;2.50;;;;;;;3.81;100.00;99586.22;5483377;25;20319;-76
2024/04/19 07:02:49;;;;;;;3.95;2.33;;;;;;;3.92;100.00;99593.25;5507075;25;21090;-75
2024/04/19 07:05:22;;;;;;;3.70;2.20;;;;;;;3.93;100.00;99586.81;5495096;25;20320;-75
2024/04/19 07:07:52;;;;;;;4.70;2.70;;;;;;;4.01;100.00;99589.00;5488383;25;20322;-75
2024/04/19 07:10:22;;;;;;;4.20;2.30;;;;;;;4.08;100.00;99575.31;5465726;25;20315;-76
2024/04/19 07:12:53;;;;;;;4.43;2.70;;;;;;;4.28;100.00;99585.34;5502382;25;20362;-75
2024/04/19 07:15:23;;;;;;;4.45;2.67;;;;;;;4.31;100.00;99579.41;5501049;25;20323;-76
2024/04/19 07:17:53;;;;;;;4.47;2.53;;;;;;;4.30;100.00;99577.00;5504057;25;20330;-75
2024/04/19 07:20:26;;;;;;;5.28;2.88;;;;;;;4.22;100.00;99570.22;5474618;26;20365;-75
2024/04/19 07:22:56;;;;;;;5.22;2.97;;;;;;;4.16;100.00;99568.59;5486128;25;20344;-75
2024/04/19 07:25:26;;;;;;;5.03;2.97;;;;;;;4.29;100.00;99565.41;5409495;25;20372;-76
2024/04/19 07:27:56;;;;;;;6.15;2.90;;;;;;;4.40;100.00;99558.94;5420545;26;20722;-76
2024/04/19 07:30:26;;;;;;;5.78;3.22;;;;;;;4.56;100.00;99542.84;5440438;26;20333;-75
2024/04/19 07:33:01;;;;;;;6.05;3.33;;;;;;;4.57;100.00;99555.22;5443469;26;21479;-76
2024/04/19 07:35:34;;;;;;;5.40;3.22;;;;;;;4.49;100.00;99553.03;5441247;25;20376;-76
2024/04/19 07:38:04;;;;;;;5.47;3.30;;;;;;;4.53;100.00;99554.13;5446803;26;20366;-76
2024/04/19 07:40:35;;;;;;;5.90;3.30;;;;;;;4.72;100.00;99549.03;5445956;26;20342;-76
2024/04/19 07:43:05;;;;;;;6.78;3.63;;;;;;;4.68;100.00;99543.38;5431067;26;20331;-76
2024/04/19 07:45:35;;;;;;;5.55;3.50;;;;;;;4.85;100.00;99547.72;5445494;26;20326;-76
2024/04/19 07:48:06;;;;;;;5.88;3.60;;;;;;;4.96;100.00;99537.72;5413396;26;20376;-76
2024/04/19 07:50:39;;;;;;;7.15;3.80;;;;;;;4.92;100.00;99537.47;5429047;26;20351;-76
2024/04/19 07:53:10;;;;;;;5.50;3.30;;;;;;;4.97;100.00;99539.34;5448288;26;20916;-76
2024/04/19 07:55:41;;;;;;;6.55;3.55;;;;;;;5.06;100.00;99540.41;5438248;26;20661;-76
2024/04/19 07:58:11;;;;;;;6.07;3.50;;;;;;;5.10;100.00;99528.81;5471819;26;21099;-76
2024/04/19 08:00:41;;;;;;;7.00;4.03;;;;;;;5.14;100.00;99530.94;5478545;25;20315;-76
2024/04/19 08:03:11;;;;;;;6.47;3.90;;;;;;;5.14;100.00;99526.38;5430724;26;20357;-76
2024/04/19 08:05:44;;;;;;;5.78;3.72;;;;;;;5.13;100.00;99526.66;5438651;25;21024;-76
2024/04/19 08:08:13;;;;;;;6.75;3.90;;;;;;;5.21;100.00;99528.81;5425509;26;20379;-76
2024/04/19 08:10:43;;;;;;;6.55;4.13;;;;;;;5.44;100.00;99524.69;5414164;26;20341;-76
2024/04/19 08:13:13;;;;;;;8.80;4.50;;;;;;;5.46;100.00;99514.44;5446076;25;22052;-76
2024/04/19 08:15:44;;;;;;;9.77;5.10;;;;;;;5.58;100.00;99516.84;5463801;26;20320;-76
2024/04/19 08:18:14;;;;;;;7.13;4.50;;;;;;;5.78;100.00;99510.53;5431500;26;20330;-76
2024/04/19 08:20:47;;;;;;;12.52;5.40;;;;;;;5.95;100.00;99508.31;5450078;26;20329;-76
2024/04/19 08:23:17;;;;;;;8.23;4.47;;;;;;;6.19;100.00;99504.19;5445756;25;21209;-76
2024/04/19 08:25:52;;;;;;;7.95;4.57;;;;;;;6.43;100.00;99507.78;5438518;26;20402;-76
2024/04/19 08:28:25;;;;;;;8.98;4.93;;;;;;;6.88;100.00;99499.59;5432825;26;20333;-76
2024/04/19 08:30:55;;;;;;;9.15;4.88;;;;;;;7.14;100.00;99494.75;5434290;26;20340;-76
2024/04/19 08:33:25;;;;;;;7.55;4.72;;;;;;;7.42;100.00;99488.78;5436918;26;21180;-76
2024/04/19 08:35:59;;;;;;;6.80;4.30;;;;;;;7.74;100.00;99487.31;5460965;26;21123;-77
2024/04/19 08:38:29;;;;;;;7.40;4.50;;;;;;;7.80;100.00;99481.56;5435759;26;20330;-76
2024/04/19 08:41:00;;;;;;;8.30;4.15;;;;;;;7.94;100.00;99481.66;5448847;25;20329;-76
2024/04/19 08:43:33;;;;;;;7.55;4.30;;;;;;;7.51;100.00;99478.91;5432198;26;20359;-76
2024/04/19 08:46:05;;;;;;;6.25;4.28;;;;;;;7.42;100.00;99478.75;5445491;26;20340;-77
2024/04/19 08:48:38;;;;;;;6.95;4.30;;;;;;;7.38;100.00;99477.72;5417408;26;20331;-76
2024/04/19 08:51:13;;;;;;;8.23;4.30;;;;;;;7.49;100.00;99481.13;5438625;26;21043;-76
2024/04/19 08:53:44;;;;;;;6.73;4.57;;;;;;;7.29;100.00;99477.56;5438456;26;20466;-76
2024/04/19 08:56:15;;;;;;;7.75;4.68;;;;;;;7.39;100.00;99476.63;5455021;26;20338;-76
2024/04/19 08:58:45;;;;;;;8.15;4.65;;;;;;;7.47;100.00;99467.88;5443797;26;20335;-76
2024/04/19 09:01:15;;;;;;;12.40;4.93;;;;;;;7.62;100.00;99464.19;5437128;26;20842;-76
2024/04/19 09:03:45;;;;;;;10.13;4.88;;;;;;;7.90;100.00;99461.66;5427129;26;20325;-76
2024/04/19 09:06:18;;;;;;;10.27;5.15;;;;;;;8.29;100.00;99468.69;5453296;26;20324;-76
2024/04/19 09:08:49;;;;;;;9.00;4.85;;;;;;;8.64;100.00;99461.09;5426079;26;20342;-76
2024/04/19 09:11:21;;;;;;;9.18;4.93;;;;;;;8.82;100.00;99459.47;5426551;26;20334;-77
2024/04/19 09:13:51;;;;;;;8.50;5.10;;;;;;;8.70;100.00;99456.41;5456467;25;20951;-83
2024/04/19 09:16:23;;;;;;;9.52;4.10;;;;;;;8.79;100.00;99451.09;5438561;25;21399;-76
2024/04/19 09:18:50;;;;;;;7.93;4.25;;;;;;;8.46;100.00;99457.31;5426004;26;20353;-76
2024/04/19 09:21:23;;;;;;;7.13;4.00;;;;;;;8.68;100.00;99445.84;5414794;26;20385;-77
2024/04/19 09:23:54;;;;;;;7.87;3.93;;;;;;;8.84;100.00;99445.59;5423920;25;20433;-76
2024/04/19 09:26:25;;;;;;;7.05;3.97;;;;;;;9.10;100.00;99437.78;5397838;26;20366;-76
2024/04/19 09:28:55;;;;;;;6.78;3.30;;;;;;;9.13;100.00;99436.41;5440853;26;20326;-77
2024/04/19 09:31:26;;;;;;;6.53;3.35;;;;;;;8.95;100.00;99435.34;5438124;26;20323;-76
2024/04/19 09:33:55;;;;;;;9.00;3.42;;;;;;;8.86;100.00;99435.25;5432454;26;20346;-76
2024/04/19 09:36:28;;;;;;;8.68;3.10;;;;;;;8.77;100.00;99442.44;5442605;26;20368;-76
2024/04/19 09:38:59;;;;;;;7.22;2.70;;;;;;;8.51;100.00;99438.25;5428050;26;20331;-76
2024/04/19 09:41:30;;;;;;;8.30;2.90;;;;;;;8.40;100.00;99439.50;5459230;25;21594;-76
2024/04/19 09:44:02;;;;;;;7.70;2.30;;;;;;;8.07;100.00;99446.78;5434394;26;20339;-77
2024/04/19 09:46:34;;;;;;;6.22;2.10;;;;;;;8.09;100.00;99428.31;5442781;26;20358;-77
2024/04/19 09:49:10;;;;;;;5.83;1.90;;;;;;;8.44;100.00;99431.59;5435252;25;20320;-76
2024/04/19 09:51:46;;;;;;;6.57;1.92;;;;;;;8.61;100.00;99431.88;5446185;25;20330;-77
2024/04/19 09:54:17;;;;;;;10.35;2.70;;;;;;;8.81;100.00;99427.19;5430282;26;20365;-77
2024/04/19 09:56:56;;;;;;;9.20;2.63;;;;;;;8.83;100.00;99420.34;5456408;25;20332;-78
2024/04/19 09:59:24;;;;;;;5.38;1.70;;;;;;;8.98;100.00;99423.91;5421988;26;20336;-78
2024/04/19 10:01:56;;;;;;;6.47;1.60;;;;;;;8.51;100.00;99424.72;5403023;26;21743;-77
2024/04/19 10:04:28;;;;;;;6.15;1.75;;;;;;;8.64;100.00;99420.41;5431961;25;20360;-77
2024/04/19 10:07:01;;;;;;;6.20;1.83;;;;;;;8.66;100.00;99420.94;5409705;26;20353;-77
2024/04/19 10:09:32;;;;;;;7.20;1.70;;;;;;;8.63;100.00;99418.81;5446496;25;20364;-76
2024/04/19 10:12:04;;;;;;;6.10;1.63;;;;;;;8.75;100.00;99420.25;5450652;25;20499;-76
2024/04/19 10:14:34;;;;;;;4.65;1.40;;;;;;;8.87;100.00;99422.50;5434407;25;20331;-76
2024/04/19 10:17:04;;;;;;;6.80;1.42;;;;;;;8.53;100.00;99421.69;5444191;25;20345;-77
2024/04/19 10:19:35;;;;;;;4.35;1.33;;;;;;;8.13;100.00;99419.34;5435638;25;20337;-76
2024/04/19 10:22:08;;;;;;;4.13;1.20;;;;;;;8.26;100.00;99406.94;5449040;26;20342;-76
2024/04/19 10:24:39;;;;;;;3.92;1.15;;;;;;;8.21;100.00;99409.72;5426689;25;20343;-76
2024/04/19 10:27:17;;;;;;;3.92;1.30;;;;;;;8.18;100.00;99408.41;5432881;26;20343;-76
2024/04/19 10:29:51;;;;;;;6.05;1.50;;;;;;;8.40;100.00;99403.47;5436269;25;20378;-76
2024/04/19 10:32:21;;;;;;;8.27;1.58;;;;;;;8.71;100.00;99394.81;5451292;26;20346;-76
2024/04/19 10:34:53;;;;;;;9.20;1.63;;;;;;;8.46;100.00;99397.66;5466058;26;20332;-76
2024/04/19 10:37:26;;;;;;;7.47;1.60;;;;;;;8.68;100.00;99402.44;5447982;26;20337;-76
2024/04/19 10:39:56;;;;;;;6.05;1.40;;;;;;;8.76;100.00;99392.81;5451373;26;20328;-76
2024/04/19 10:42:26;;;;;;;6.75;1.70;;;;;;;8.82;100.00;99393.53;5450322;26;21237;-76
2024/04/19 10:44:56;;;;;;;5.40;1.70;;;;;;;8.79;100.00;99386.78;5394625;26;20681;-76
2024/04/19 10:47:26;;;;;;;6.18;1.65;;;;;;;9.04;100.00;99389.34;5465241;25;20324;-77
2024/04/19 10:49:56;;;;;;;7.32;1.85;;;;;;;9.16;100.00;99379.56;5466305;25;20320;-76
2024/04/19 10:52:29;;;;;;;6.13;1.65;;;;;;;9.53;100.00;99366.88;5423924;26;20693;-77
2024/04/19 10:54:59;;;;;;;7.63;2.10;;;;;;;9.48;100.00;99371.59;5451797;25;20355;-77
2024/04/19 10:57:31;;;;;;;5.78;1.90;;;;;;;9.53;100.00;99377.72;5402886;26;20358;-77
2024/04/19 11:00:01;;;;;;;8.63;2.27;;;;;;;9.64;100.00;99381.03;5421650;26;20384;-77
2024/04/19 11:02:33;;;;;;;10.05;2.40;;;;;;;9.76;100.00;99371.53;5474357;25;20334;-77
2024/04/19 11:05:04;;;;;;;10.68;2.25;;;;;;;9.53;100.00;99375.00;5444799;26;20326;-77
2024/04/19 11:07:37;;;;;;;8.18;2.15;;;;;;;9.57;100.00;99369.78;5473870;26;20320;-77
2024/04/19 11:10:09;;;;;;;9.03;2.10;;;;;;;9.38;100.00;99363.66;5436984;26;20886;-77
2024/04/19 11:12:39;;;;;;;9.90;2.67;;;;;;;9.48;100.00;99363.47;5425797;25;20460;-77
2024/04/19 11:15:10;;;;;;;10.25;2.50;;;;;;;9.39;100.00;99359.84;5457120;25;21177;-78
2024/04/19 11:17:41;;;;;;;8.38;2.90;;;;;;;9.32;100.00;99363.78;5436936;26;20668;-77
2024/04/19 11:20:11;;;;;;;10.73;2.47;;;;;;;9.39;100.00;99360.66;5450283;25;20363;-77
2024/04/19 11:22:44;;;;;;;6.50;2.00;;;;;;;8.97;100.00;99354.47;5451417;25;20361;-76
2024/04/19 11:25:14;;;;;;;7.95;2.65;;;;;;;9.32;100.00;99358.38;5426684;26;20332;-76
2024/04/19 11:27:44;;;;;;;7.75;2.60;;;;;;;9.38;100.00;99360.94;5395755;26;20333;-77
2024/04/19 11:30:14;;;;;;;6.43;2.10;;;;;;;9.60;100.00;99349.34;5460568;25;20345;-77
2024/04/19 11:32:44;;;;;;;6.68;1.95;;;;;;;9.68;100.00;99354.88;5408603;26;20329;-77
2024/04/19 11:35:14;;;;;;;9.53;2.50;;;;;;;9.94;100.00;99350.75;5463129;25;20326;-77
2024/04/19 11:37:50;;;;;;;7.75;2.40;;;;;;;10.29;100.00;99346.38;5473486;26;20324;-77
2024/04/19 11:40:22;;;;;;;9.63;2.47;;;;;;;10.28;100.00;99343.97;5456517;26;20332;-77
2024/04/19 11:42:53;;;;;;;8.20;1.83;;;;;;;10.34;100.00;99348.13;5447971;25;20353;-76
2024/04/19 11:45:28;;;;;;;8.90;1.40;;;;;;;10.04;100.00;99353.22;5466489;26;20366;-77
2024/04/19 11:48:01;;;;;;;6.15;1.40;;;;;;;9.68;100.00;99364.91;5440006;25;20354;-77
2024/04/19 11:50:31;;;;;;;3.60;0.98;;;;;;;8.83;100.00;99374.25;5443083;25;20410;-76